| time (UTC) | temp F | wind direction | speed MPH | gust MPH | rain 1hr in | rain 24hr in | rain mn in | humidity % | barometer mb |
| 20260904223542 | 74 | 302 | 1.0 | 5.0 | 0.00 | 0.43 | 0.00 | 67 | 1012.6 |
| 20260904223056 | 74 | 322 | 2.0 | 6.0 | 0.00 | 0.43 | 0.00 | 66 | 1012.5 |
| 20260904222533 | 74 | 327 | 1.0 | 8.0 | 0.00 | 0.43 | 0.00 | 66 | 1012.5 |
| 20260904222053 | 74 | 325 | 5.0 | 8.0 | 0.00 | 0.43 | 0.00 | 65 | 1012.4 |
| 20260904221554 | 75 | 330 | 2.0 | 8.0 | 0.00 | 0.43 | 0.00 | 66 | 1012.3 |
| 20260904221030 | 75 | 332 | 3.0 | 8.0 | 0.00 | 0.43 | 0.00 | 66 | 1012.4 |
| 20260904220525 | 75 | 321 | 4.0 | 8.0 | 0.00 | 0.43 | 0.00 | 65 | 1012.5 |
| 20260904220038 | 75 | 343 | 3.0 | 7.0 | 0.00 | 0.43 | 0.00 | 66 | 1012.4 |
| 20260904215536 | 75 | 343 | 3.0 | 7.0 | 0.00 | 0.45 | 0.00 | 65 | 1012.4 |
| 20260904215041 | 75 | 321 | 2.0 | 6.0 | 0.00 | 0.45 | 0.00 | 64 | 1012.3 |
| 20260904214539 | 75 | 275 | 2.0 | 11.0 | 0.00 | 0.45 | 0.00 | 64 | 1012.3 |
| 20260904214058 | 75 | 315 | 4.0 | 11.0 | 0.00 | 0.45 | 0.00 | 63 | 1012.3 |
| 20260904213542 | 75 | 339 | 3.0 | 10.0 | 0.00 | 0.45 | 0.00 | 65 | 1012.5 |
| 20260904213047 | 75 | 340 | 2.0 | 5.0 | 0.00 | 0.45 | 0.00 | 68 | 1012.5 |
| 20260904212548 | 75 | 274 | 1.0 | 8.0 | 0.00 | 0.45 | 0.00 | 69 | 1012.6 |
| 20260904212112 | 75 | 296 | 3.0 | 8.0 | 0.00 | 0.45 | 0.00 | 66 | 1012.6 |
| 20260904211548 | 75 | 331 | 5.0 | 8.0 | 0.00 | 0.45 | 0.00 | 66 | 1012.5 |
| 20260904211034 | 75 | 322 | 3.0 | 6.0 | 0.00 | 0.45 | 0.00 | 67 | 1012.6 |
| 20260904210527 | 76 | 334 | 3.0 | 9.0 | 0.00 | 0.45 | 0.00 | 67 | 1012.7 |
| 20260904210030 | 76 | 327 | 5.0 | 10.0 | 0.00 | 0.45 | 0.00 | 66 | 1012.7 |
| 20260904205539 | 76 | 335 | 4.0 | 11.0 | 0.00 | 0.45 | 0.00 | 67 | 1012.8 |
| 20260904205029 | 76 | 336 | 6.0 | 11.0 | 0.00 | 0.45 | 0.00 | 67 | 1012.7 |
| 20260904204533 | 76 | 329 | 3.0 | 8.0 | 0.00 | 0.45 | 0.00 | 69 | 1012.7 |
| 20260904204036 | 77 | 297 | 3.0 | 10.0 | 0.00 | 0.45 | 0.00 | 69 | 1012.7 |
| 20260904203605 | 77 | 338 | 5.0 | 10.0 | 0.00 | 0.45 | 0.00 | 67 | 1012.7 |
| 20260904203029 | 77 | 306 | 5.0 | 7.0 | 0.00 | 0.45 | 0.00 | 69 | 1012.7 |
| 20260904202524 | 77 | 265 | 3.0 | 9.0 | 0.00 | 0.45 | 0.00 | 70 | 1012.7 |
| 20260904202024 | 77 | 341 | 5.0 | 9.0 | 0.00 | 0.45 | 0.00 | 68 | 1012.8 |
| 20260904201550 | 77 | 275 | 4.0 | 11.0 | 0.00 | 0.45 | 0.00 | 68 | 1012.8 |
| 20260904201043 | 77 | 274 | 6.0 | 11.0 | 0.00 | 0.45 | 0.00 | 66 | 1012.8 |
| 20260904200533 | 77 | 265 | 3.0 | 11.0 | 0.00 | 0.45 | 0.00 | 67 | 1012.9 |
| 20260904200023 | 77 | 317 | 3.0 | 11.0 | 0.00 | 0.45 | 0.00 | 67 | 1013.0 |
| 20260904195530 | 77 | 331 | 4.0 | 11.0 | 0.00 | 0.45 | 0.00 | 67 | 1013.1 |
| 20260904195041 | 77 | 329 | 3.0 | 11.0 | 0.00 | 0.45 | 0.00 | 67 | 1013.1 |
| 20260904194558 | 77 | 275 | 2.0 | 7.0 | 0.00 | 0.45 | 0.00 | 67 | 1013.2 |
| 20260904194034 | 77 | 273 | 2.0 | 8.0 | 0.00 | 0.45 | 0.00 | 67 | 1013.2 |
| 20260904193527 | 77 | 311 | 3.0 | 8.0 | 0.00 | 0.45 | 0.00 | 65 | 1013.3 |
| 20260904193027 | 77 | 287 | 1.0 | 9.0 | 0.00 | 0.45 | 0.00 | 67 | 1013.4 |
| 20260904192533 | 77 | 328 | 5.0 | 9.0 | 0.00 | 0.45 | 0.00 | 65 | 1013.4 |
| 20260904192029 | 77 | 322 | 3.0 | 8.0 | 0.00 | 0.45 | 0.00 | 67 | 1013.4 |
| 20260904191553 | 77 | 273 | 3.0 | 7.0 | 0.00 | 0.45 | 0.00 | 67 | 1013.5 |
| 20260904191054 | 77 | 273 | 3.0 | 7.0 | 0.00 | 0.45 | 0.00 | 66 | 1013.5 |
| 20260904190541 | 77 | 275 | 3.0 | 7.0 | 0.00 | 0.45 | 0.00 | 65 | 1013.5 |
| 20260904190055 | 77 | 292 | 4.0 | 7.0 | 0.00 | 0.45 | 0.00 | 67 | 1013.5 |
| 20260904185554 | 77 | 261 | 2.0 | 7.0 | 0.00 | 0.45 | 0.00 | 66 | 1013.5 |
| 20260904185054 | 77 | 299 | 3.0 | 8.0 | 0.00 | 0.45 | 0.00 | 67 | 1013.7 |
| 20260904184548 | 77 | 271 | 2.0 | 10.0 | 0.00 | 0.45 | 0.00 | 68 | 1013.7 |
| 20260904184023 | 77 | 275 | 2.0 | 10.0 | 0.00 | 0.45 | 0.00 | 70 | 1013.7 |
| 20260904183554 | 77 | 284 | 1.0 | 5.0 | 0.00 | 0.45 | 0.00 | 70 | 1013.9 |
| 20260904183026 | 76 | 296 | 1.0 | 5.0 | 0.00 | 0.45 | 0.00 | 69 | 1013.8 |
| 20260904182602 | 76 | 276 | 2.0 | 6.0 | 0.00 | 0.45 | 0.00 | 68 | 1013.8 |
| 20260904182058 | 76 | 277 | 3.0 | 9.0 | 0.00 | 0.45 | 0.00 | 68 | 1014.0 |
| 20260904181528 | 77 | 336 | 3.0 | 7.0 | 0.00 | 0.45 | 0.00 | 69 | 1014.1 |
| 20260904181026 | 77 | 254 | 1.0 | 6.0 | 0.00 | 0.45 | 0.00 | 69 | 1014.0 |
| 20260904180551 | 77 | 271 | 3.0 | 5.0 | 0.00 | 0.45 | 0.00 | 67 | 1013.9 |
| 20260904180036 | 77 | 274 | 1.0 | 5.0 | 0.00 | 0.45 | 0.00 | 70 | 1013.9 |
| 20260904175533 | 76 | 284 | 2.0 | 8.0 | 0.00 | 0.45 | 0.00 | 68 | 1014.0 |
| 20260904175040 | 76 | 271 | 3.0 | 8.0 | 0.00 | 0.45 | 0.00 | 68 | 1014.1 |
| 20260904174549 | 76 | 292 | 1.0 | 6.0 | 0.00 | 0.45 | 0.00 | 69 | 1014.2 |
| 20260904174026 | 76 | 278 | 0.0 | 6.0 | 0.00 | 0.45 | 0.00 | 68 | 1014.2 |
| 20260904173545 | 76 | 267 | 3.0 | 5.0 | 0.00 | 0.45 | 0.00 | 68 | 1014.2 |
| 20260904173036 | 76 | 296 | 1.0 | 7.0 | 0.00 | 0.45 | 0.00 | 70 | 1014.3 |
| 20260904172549 | 76 | 275 | 3.0 | 7.0 | 0.00 | 0.45 | 0.00 | 67 | 1014.3 |
| 20260904172031 | 76 | 268 | 3.0 | 8.0 | 0.00 | 0.45 | 0.00 | 67 | 1014.4 |
| 20260904171534 | 76 | 298 | 3.0 | 8.0 | 0.00 | 0.45 | 0.00 | 69 | 1014.4 |
| 20260904171043 | 77 | 292 | 4.0 | 8.0 | 0.00 | 0.45 | 0.00 | 68 | 1014.5 |
| 20260904170531 | 77 | 261 | 1.0 | 6.0 | 0.00 | 0.45 | 0.00 | 69 | 1014.4 |
| 20260904170048 | 77 | 335 | 3.0 | 8.0 | 0.00 | 0.45 | 0.00 | 68 | 1014.4 |
| 20260904165538 | 77 | 281 | 2.0 | 7.0 | 0.00 | 0.46 | 0.00 | 70 | 1014.4 |
| 20260904165051 | 76 | 276 | 3.0 | 9.0 | 0.00 | 0.46 | 0.00 | 71 | 1014.5 |
| 20260904164538 | 76 | 294 | 4.0 | 9.0 | 0.00 | 0.46 | 0.00 | 70 | 1014.4 |
| 20260904164110 | 76 | 284 | 2.0 | 6.0 | 0.00 | 0.46 | 0.00 | 72 | 1014.4 |
| 20260904163547 | 76 | 341 | 3.0 | 6.0 | 0.00 | 0.46 | 0.00 | 72 | 1014.5 |
| 20260904163033 | 77 | 305 | 1.0 | 6.0 | 0.00 | 0.46 | 0.00 | 72 | 1014.5 |
| 20260904162538 | 77 | 286 | 3.0 | 6.0 | 0.00 | 0.46 | 0.00 | 70 | 1014.5 |
| 20260904162044 | 78 | 270 | 0.0 | 5.0 | 0.00 | 0.46 | 0.00 | 71 | 1014.5 |
| 20260904161525 | 77 | 270 | 0.0 | 5.0 | 0.00 | 0.46 | 0.00 | 73 | 1014.5 |
| 20260904161038 | 77 | 270 | 0.0 | 5.0 | 0.00 | 0.46 | 0.00 | 74 | 1014.5 |
| 20260904160533 | 76 | 298 | 2.0 | 5.0 | 0.00 | 0.46 | 0.00 | 76 | 1014.6 |
| 20260904160032 | 76 | 279 | 0.0 | 7.0 | 0.00 | 0.46 | 0.00 | 75 | 1014.5 |
| 20260904155542 | 76 | 280 | 2.0 | 7.0 | 0.00 | 0.46 | 0.00 | 73 | 1014.6 |
| 20260904155056 | 76 | 331 | 2.0 | 6.0 | 0.00 | 0.46 | 0.00 | 74 | 1014.4 |
| 20260904154601 | 76 | 283 | 3.0 | 6.0 | 0.00 | 0.46 | 0.00 | 74 | 1014.6 |
| 20260904154043 | 76 | 332 | 2.0 | 5.0 | 0.00 | 0.46 | 0.00 | 72 | 1014.5 |
| 20260904153527 | 77 | 335 | 3.0 | 5.0 | 0.00 | 0.46 | 0.00 | 74 | 1014.6 |
| 20260904153104 | 77 | 327 | 2.0 | 4.0 | 0.00 | 0.46 | 0.00 | 74 | 1014.5 |
| 20260904152541 | 77 | 282 | 0.0 | 7.0 | 0.00 | 0.46 | 0.00 | 76 | 1014.4 |
| 20260904152036 | 76 | 351 | 2.0 | 7.0 | 0.00 | 0.46 | 0.00 | 75 | 1014.4 |
| 20260904151534 | 76 | 331 | 2.0 | 5.0 | 0.00 | 0.46 | 0.00 | 75 | 1014.4 |
| 20260904151039 | 76 | 291 | 1.0 | 8.0 | 0.00 | 0.46 | 0.00 | 77 | 1014.3 |
| 20260904150542 | 75 | 328 | 2.0 | 8.0 | 0.00 | 0.46 | 0.00 | 77 | 1014.4 |
| 20260904150029 | 75 | 5 | 0.0 | 6.0 | 0.00 | 0.46 | 0.00 | 77 | 1014.4 |
| 20260904145529 | 75 | 286 | 1.0 | 6.0 | 0.00 | 0.46 | 0.00 | 77 | 1014.3 |
| 20260904145037 | 75 | 250 | 2.0 | 6.0 | 0.00 | 0.46 | 0.00 | 77 | 1014.2 |
| 20260904144611 | 75 | 335 | 2.0 | 5.0 | 0.00 | 0.46 | 0.00 | 77 | 1014.3 |
| 20260904144037 | 75 | 335 | 1.0 | 4.0 | 0.00 | 0.46 | 0.00 | 79 | 1014.3 |
| 20260904143544 | 74 | 297 | 0.0 | 5.0 | 0.00 | 0.46 | 0.00 | 79 | 1014.5 |
| 20260904143104 | 74 | 348 | 1.0 | 5.0 | 0.00 | 0.46 | 0.00 | 80 | 1014.7 |
| 20260904142556 | 74 | 290 | 1.0 | 5.0 | 0.00 | 0.46 | 0.00 | 79 | 1014.6 |
| 20260904142033 | 74 | 284 | 2.0 | 5.0 | 0.00 | 0.46 | 0.00 | 81 | 1014.5 |
| 20260904141524 | 74 | 284 | 0.0 | 5.0 | 0.00 | 0.46 | 0.00 | 81 | 1014.6 |
| 20260904141046 | 74 | 297 | 0.0 | 4.0 | 0.00 | 0.46 | 0.00 | 82 | 1014.5 |
| 20260904140540 | 73 | 259 | 1.0 | 5.0 | 0.00 | 0.46 | 0.00 | 84 | 1014.4 |
| 20260904140046 | 73 | 262 | 1.0 | 5.0 | 0.00 | 0.46 | 0.00 | 84 | 1014.6 |
| 20260904135546 | 73 | 270 | 0.0 | 3.0 | 0.00 | 0.46 | 0.00 | 85 | 1014.6 |
| 20260904135115 | 72 | 277 | 0.0 | 3.0 | 0.00 | 0.46 | 0.00 | 86 | 1014.7 |
| 20260904134527 | 72 | 273 | 0.0 | 2.0 | 0.00 | 0.46 | 0.00 | 87 | 1014.7 |
| 20260904134050 | 71 | 273 | 0.0 | 2.0 | 0.00 | 0.46 | 0.00 | 87 | 1014.7 |
| 20260904133545 | 71 | 273 | 0.0 | 4.0 | 0.00 | 0.46 | 0.00 | 88 | 1014.5 |
| 20260904133049 | 71 | 290 | 1.0 | 4.0 | 0.00 | 0.46 | 0.00 | 89 | 1014.7 |
| 20260904132538 | 70 | 273 | 0.0 | 5.0 | 0.00 | 0.46 | 0.00 | 90 | 1014.6 |
| 20260904132030 | 70 | 273 | 0.0 | 6.0 | 0.00 | 0.46 | 0.00 | 90 | 1014.7 |
| 20260904131531 | 70 | 279 | 2.0 | 6.0 | 0.00 | 0.46 | 0.00 | 91 | 1014.8 |
| 20260904131100 | 69 | 263 | 0.0 | 3.0 | 0.00 | 0.46 | 0.00 | 92 | 1014.7 |
| 20260904130612 | 69 | 277 | 0.0 | 3.0 | 0.00 | 0.46 | 0.00 | 93 | 1014.7 |
| 20260904130026 | 69 | 267 | 0.0 | 0.0 | 0.00 | 0.46 | 0.00 | 93 | 1014.9 |
| 20260904125533 | 68 | 262 | 0.0 | 0.0 | 0.00 | 0.46 | 0.00 | 94 | 1014.8 |
| 20260904125048 | 68 | 279 | 0.0 | 0.0 | 0.00 | 0.46 | 0.00 | 95 | 1014.9 |
| 20260904124552 | 68 | 265 | 0.0 | 0.0 | 0.00 | 0.46 | 0.00 | 95 | 1014.8 |
| 20260904124037 | 67 | 265 | 0.0 | 0.0 | 0.00 | 0.46 | 0.00 | 95 | 1014.5 |
| 20260904123538 | 67 | 258 | 0.0 | 0.0 | 0.00 | 0.46 | 0.00 | 95 | 1014.5 |
| 20260904123031 | 67 | 258 | 0.0 | 0.0 | 0.00 | 0.46 | 0.00 | 95 | 1014.4 |
| 20260904122540 | 67 | 258 | 0.0 | 0.0 | 0.00 | 0.46 | 0.00 | 96 | 1014.5 |
| 20260904122033 | 67 | 258 | 0.0 | 0.0 | 0.00 | 0.46 | 0.00 | 95 | 1014.5 |
| 20260904121524 | 66 | 258 | 0.0 | 0.0 | 0.00 | 0.46 | 0.00 | 95 | 1014.6 |
| 20260904121031 | 66 | 258 | 0.0 | 0.0 | 0.00 | 0.46 | 0.00 | 95 | 1014.5 |
| 20260904120548 | 66 | 258 | 0.0 | 0.0 | 0.00 | 0.46 | 0.00 | 95 | 1014.4 |
| 20260904120035 | 66 | 258 | 0.0 | 0.0 | 0.00 | 0.46 | 0.00 | 96 | 1014.5 |
| 20260904115531 | 66 | 258 | 0.0 | 0.0 | 0.00 | 0.46 | 0.00 | 95 | 1014.6 |
| 20260904115039 | 65 | 258 | 0.0 | 0.0 | 0.00 | 0.46 | 0.00 | 95 | 1014.6 |
| 20260904114527 | 65 | 258 | 0.0 | 0.0 | 0.00 | 0.46 | 0.00 | 95 | 1014.6 |
| 20260904114119 | 65 | 258 | 0.0 | 0.0 | 0.00 | 0.46 | 0.00 | 95 | 1014.6 |
| 20260904113549 | 64 | 258 | 0.0 | 0.0 | 0.00 | 0.46 | 0.00 | 95 | 1014.6 |
| 20260904113053 | 64 | 258 | 0.0 | 0.0 | 0.00 | 0.46 | 0.00 | 95 | 1014.5 |
| 20260904112556 | 64 | 258 | 0.0 | 0.0 | 0.00 | 0.46 | 0.00 | 95 | 1014.4 |
| 20260904112057 | 64 | 258 | 0.0 | 0.0 | 0.00 | 0.46 | 0.00 | 94 | 1014.4 |
| 20260904111558 | 64 | 258 | 0.0 | 0.0 | 0.00 | 0.46 | 0.00 | 94 | 1014.4 |
| 20260904111031 | 64 | 258 | 0.0 | 0.0 | 0.00 | 0.46 | 0.00 | 94 | 1014.4 |
| 20260904110541 | 64 | 258 | 0.0 | 0.0 | 0.00 | 0.46 | 0.00 | 94 | 1014.3 |
| 20260904110040 | 64 | 258 | 0.0 | 0.0 | 0.00 | 0.46 | 0.00 | 94 | 1014.3 |
| 20260904105532 | 64 | 258 | 0.0 | 0.0 | 0.00 | 0.46 | 0.00 | 94 | 1014.2 |
| 20260904105043 | 64 | 258 | 0.0 | 0.0 | 0.00 | 0.46 | 0.00 | 94 | 1014.2 |
| 20260904104549 | 65 | 258 | 0.0 | 0.0 | 0.00 | 0.46 | 0.00 | 94 | 1014.2 |
| 20260904104033 | 65 | 258 | 0.0 | 0.0 | 0.00 | 0.46 | 0.00 | 94 | 1014.2 |
| 20260904103536 | 65 | 258 | 0.0 | 0.0 | 0.00 | 0.46 | 0.00 | 94 | 1014.1 |
| 20260904103039 | 65 | 258 | 0.0 | 0.0 | 0.00 | 0.46 | 0.00 | 94 | 1014.1 |
| 20260904102546 | 65 | 258 | 0.0 | 0.0 | 0.00 | 0.46 | 0.00 | 94 | 1014.0 |
| 20260904102029 | 65 | 258 | 0.0 | 0.0 | 0.00 | 0.46 | 0.00 | 94 | 1013.8 |
| 20260904101525 | 65 | 258 | 0.0 | 0.0 | 0.00 | 0.46 | 0.00 | 94 | 1013.8 |
| 20260904101043 | 65 | 258 | 0.0 | 0.0 | 0.00 | 0.46 | 0.00 | 95 | 1013.8 |
| 20260904100530 | 65 | 258 | 0.0 | 0.0 | 0.00 | 0.46 | 0.00 | 94 | 1013.8 |
| 20260904100033 | 65 | 258 | 0.0 | 0.0 | 0.00 | 0.46 | 0.00 | 94 | 1013.9 |
| 20260904095539 | 65 | 258 | 0.0 | 0.0 | 0.00 | 0.46 | 0.00 | 94 | 1013.8 |
| 20260904095023 | 65 | 258 | 0.0 | 0.0 | 0.00 | 0.46 | 0.00 | 94 | 1013.8 |
| 20260904094525 | 65 | 258 | 0.0 | 0.0 | 0.00 | 0.46 | 0.00 | 94 | 1013.7 |
| 20260904094049 | 65 | 258 | 0.0 | 0.0 | 0.00 | 0.46 | 0.00 | 95 | 1013.7 |
| 20260904093534 | 66 | 258 | 0.0 | 0.0 | 0.00 | 0.46 | 0.00 | 95 | 1013.6 |
| 20260904093042 | 66 | 258 | 0.0 | 0.0 | 0.00 | 0.46 | 0.00 | 95 | 1013.6 |
| 20260904092544 | 66 | 258 | 0.0 | 0.0 | 0.00 | 0.46 | 0.00 | 95 | 1013.5 |
| 20260904092045 | 66 | 258 | 0.0 | 0.0 | 0.00 | 0.46 | 0.00 | 95 | 1013.5 |
| 20260904091529 | 66 | 258 | 0.0 | 0.0 | 0.00 | 0.46 | 0.00 | 95 | 1013.4 |
| 20260904091045 | 66 | 258 | 0.0 | 0.0 | 0.00 | 0.46 | 0.00 | 95 | 1013.5 |
| 20260904090531 | 66 | 258 | 0.0 | 0.0 | 0.00 | 0.46 | 0.00 | 95 | 1013.4 |
| 20260904090040 | 66 | 258 | 0.0 | 0.0 | 0.00 | 0.46 | 0.00 | 95 | 1013.3 |
| 20260904085607 | 66 | 258 | 0.0 | 0.0 | 0.00 | 0.46 | 0.00 | 94 | 1013.4 |
| 20260904085031 | 66 | 258 | 0.0 | 0.0 | 0.00 | 0.46 | 0.00 | 94 | 1013.4 |
| 20260904084550 | 66 | 258 | 0.0 | 0.0 | 0.00 | 0.46 | 0.00 | 94 | 1013.3 |
| 20260904084032 | 66 | 258 | 0.0 | 0.0 | 0.00 | 0.46 | 0.00 | 94 | 1013.3 |
| 20260904083530 | 66 | 258 | 0.0 | 0.0 | 0.00 | 0.46 | 0.00 | 94 | 1013.3 |
| 20260904083039 | 66 | 258 | 0.0 | 0.0 | 0.00 | 0.46 | 0.00 | 94 | 1013.2 |
| 20260904082530 | 66 | 258 | 0.0 | 0.0 | 0.00 | 0.46 | 0.00 | 95 | 1013.0 |
| 20260904082029 | 66 | 258 | 0.0 | 0.0 | 0.00 | 0.46 | 0.00 | 95 | 1013.0 |
| 20260904081528 | 66 | 258 | 0.0 | 0.0 | 0.00 | 0.46 | 0.00 | 94 | 1012.9 |
| 20260904081053 | 66 | 258 | 0.0 | 0.0 | 0.00 | 0.46 | 0.00 | 94 | 1012.9 |
| 20260904080529 | 66 | 258 | 0.0 | 0.0 | 0.00 | 0.46 | 0.00 | 94 | 1012.9 |
| 20260904080027 | 66 | 258 | 0.0 | 0.0 | 0.00 | 0.46 | 0.00 | 94 | 1012.9 |
| 20260904075543 | 67 | 258 | 0.0 | 0.0 | 0.00 | 0.46 | 0.00 | 94 | 1012.9 |
| 20260904075024 | 67 | 258 | 0.0 | 0.0 | 0.00 | 0.46 | 0.00 | 94 | 1012.9 |
| 20260904074531 | 67 | 258 | 0.0 | 0.0 | 0.00 | 0.46 | 0.00 | 95 | 1012.9 |
| 20260904074050 | 67 | 258 | 0.0 | 0.0 | 0.00 | 0.46 | 0.00 | 95 | 1012.8 |
| 20260904073532 | 67 | 258 | 0.0 | 0.0 | 0.00 | 0.46 | 0.00 | 95 | 1012.8 |
| 20260904073058 | 67 | 258 | 0.0 | 0.0 | 0.00 | 0.46 | 0.00 | 94 | 1012.8 |
| 20260904072534 | 67 | 261 | 0.0 | 0.0 | 0.00 | 0.46 | 0.00 | 94 | 1012.8 |
| 20260904072104 | 67 | 261 | 0.0 | 0.0 | 0.00 | 0.46 | 0.00 | 94 | 1012.8 |
| 20260904071543 | 68 | 261 | 0.0 | 0.0 | 0.00 | 0.46 | 0.00 | 95 | 1012.6 |
| 20260904071030 | 68 | 261 | 0.0 | 0.0 | 0.00 | 0.46 | 0.00 | 95 | 1012.6 |
| 20260904070535 | 68 | 261 | 0.0 | 1.0 | 0.00 | 0.46 | 0.00 | 94 | 1012.6 |
| 20260904070114 | 68 | 261 | 0.0 | 1.0 | 0.00 | 0.46 | 0.00 | 94 | 1012.5 |
| 20260904065548 | 68 | 246 | 0.0 | 0.0 | 0.00 | 0.46 | 0.00 | 95 | 1012.5 |
| 20260904065035 | 68 | 245 | 0.0 | 0.0 | 0.00 | 0.46 | 0.00 | 95 | 1012.4 |
| 20260904064529 | 68 | 245 | 0.0 | 0.0 | 0.00 | 0.46 | 0.00 | 95 | 1012.5 |
| 20260904064040 | 68 | 246 | 0.0 | 0.0 | 0.00 | 0.46 | 0.00 | 95 | 1012.7 |
| 20260904063525 | 69 | 245 | 0.0 | 0.0 | 0.00 | 0.46 | 0.00 | 95 | 1012.7 |
| 20260904063053 | 69 | 245 | 0.0 | 0.0 | 0.00 | 0.46 | 0.00 | 95 | 1012.8 |
| 20260904062531 | 69 | 245 | 0.0 | 0.0 | 0.00 | 0.46 | 0.00 | 95 | 1012.8 |
| 20260904062104 | 69 | 245 | 0.0 | 0.0 | 0.00 | 0.46 | 0.00 | 94 | 1012.7 |
| 20260904061528 | 69 | 245 | 0.0 | 0.0 | 0.00 | 0.46 | 0.00 | 95 | 1012.7 |
| 20260904061051 | 69 | 245 | 0.0 | 0.0 | 0.00 | 0.46 | 0.00 | 95 | 1012.8 |
| 20260904060537 | 69 | 245 | 0.0 | 0.0 | 0.00 | 0.46 | 0.00 | 95 | 1012.8 |
| 20260904060047 | 69 | 245 | 0.0 | 0.0 | 0.00 | 0.46 | 0.00 | 95 | 1012.8 |
| 20260904055546 | 69 | 245 | 0.0 | 0.0 | 0.00 | 0.46 | 0.00 | 95 | 1012.9 |
| 20260904055057 | 69 | 245 | 0.0 | 0.0 | 0.00 | 0.46 | 0.00 | 95 | 1013.0 |
| 20260904054540 | 69 | 245 | 0.0 | 0.0 | 0.00 | 0.46 | 0.00 | 95 | 1013.0 |
| 20260904054031 | 69 | 245 | 0.0 | 0.0 | 0.00 | 0.46 | 0.00 | 95 | 1013.0 |
| 20260904053538 | 69 | 245 | 0.0 | 0.0 | 0.00 | 0.46 | 0.00 | 94 | 1013.0 |
| 20260904053036 | 69 | 245 | 0.0 | 0.0 | 0.00 | 0.46 | 0.00 | 94 | 1013.0 |
| 20260904052546 | 69 | 245 | 0.0 | 0.0 | 0.00 | 0.46 | 0.00 | 94 | 1013.1 |
| 20260904052044 | 69 | 245 | 0.0 | 0.0 | 0.00 | 0.46 | 0.00 | 94 | 1013.1 |
| 20260904051556 | 69 | 245 | 0.0 | 0.0 | 0.00 | 0.46 | 0.00 | 94 | 1013.1 |
| 20260904051029 | 69 | 245 | 0.0 | 0.0 | 0.00 | 0.46 | 0.00 | 94 | 1013.2 |
| 20260904050536 | 69 | 245 | 0.0 | 0.0 | 0.00 | 0.46 | 0.00 | 94 | 1013.1 |
| 20260904050036 | 69 | 245 | 0.0 | 0.0 | 0.00 | 0.46 | 0.00 | 94 | 1013.2 |
| 20260904045541 | 69 | 245 | 0.0 | 0.0 | 0.00 | 0.46 | 0.00 | 94 | 1013.1 |
| 20260904045042 | 69 | 245 | 0.0 | 0.0 | 0.00 | 0.46 | 0.00 | 94 | 1013.1 |
| 20260904044601 | 69 | 245 | 0.0 | 0.0 | 0.00 | 0.46 | 0.00 | 94 | 1013.0 |
| 20260904044115 | 69 | 245 | 0.0 | 0.0 | 0.00 | 0.46 | 0.00 | 94 | 1013.2 |
| 20260904043538 | 69 | 245 | 0.0 | 0.0 | 0.00 | 0.46 | 0.00 | 94 | 1013.1 |
| 20260904043058 | 70 | 245 | 0.0 | 0.0 | 0.00 | 0.46 | 0.00 | 94 | 1013.1 |
| 20260904042536 | 70 | 245 | 0.0 | 0.0 | 0.00 | 0.46 | 0.00 | 94 | 1013.1 |
| 20260904042046 | 70 | 245 | 0.0 | 0.0 | 0.00 | 0.46 | 0.00 | 94 | 1013.1 |
| 20260904041552 | 70 | 245 | 0.0 | 0.0 | 0.00 | 0.46 | 0.00 | 94 | 1013.1 |
| 20260904041023 | 70 | 245 | 0.0 | 0.0 | 0.00 | 0.46 | 0.00 | 94 | 1013.1 |
| 20260904040545 | 70 | 245 | 0.0 | 0.0 | 0.00 | 0.46 | 0.00 | 94 | 1013.1 |
| 20260904040037 | 70 | 245 | 0.0 | 0.0 | 0.00 | 0.46 | 0.00 | 94 | 1013.2 |
| 20260904035541 | 70 | 245 | 0.0 | 0.0 | 0.00 | 0.47 | 0.46 | 94 | 1013.2 |
| 20260904035031 | 70 | 245 | 0.0 | 0.0 | 0.00 | 0.47 | 0.46 | 94 | 1013.2 |
| 20260904034528 | 70 | 245 | 0.0 | 0.0 | 0.00 | 0.47 | 0.46 | 94 | 1013.0 |
| 20260904034045 | 70 | 245 | 0.0 | 0.0 | 0.00 | 0.47 | 0.46 | 94 | 1013.1 |
| 20260904033527 | 70 | 245 | 0.0 | 0.0 | 0.00 | 0.47 | 0.46 | 94 | 1013.0 |
| 20260904033045 | 70 | 245 | 0.0 | 0.0 | 0.00 | 0.47 | 0.46 | 93 | 1012.9 |
| 20260904032526 | 70 | 245 | 0.0 | 0.0 | 0.00 | 0.47 | 0.46 | 93 | 1012.9 |
| 20260904032047 | 70 | 245 | 0.0 | 0.0 | 0.00 | 0.47 | 0.46 | 93 | 1012.8 |
| 20260904031555 | 70 | 245 | 0.0 | 0.0 | 0.00 | 0.47 | 0.46 | 93 | 1012.8 |
| 20260904031029 | 70 | 245 | 0.0 | 0.0 | 0.01 | 0.47 | 0.46 | 93 | 1012.8 |
| 20260904030559 | 70 | 245 | 0.0 | 0.0 | 0.01 | 0.47 | 0.46 | 93 | 1012.8 |
| 20260904030032 | 70 | 245 | 0.0 | 0.0 | 0.01 | 0.47 | 0.46 | 93 | 1012.8 |
| 20260904025539 | 70 | 245 | 0.0 | 0.0 | 0.01 | 0.51 | 0.46 | 93 | 1012.9 |
| 20260904025030 | 70 | 245 | 0.0 | 0.0 | 0.02 | 0.51 | 0.46 | 93 | 1013.0 |
| 20260904024534 | 70 | 245 | 0.0 | 0.0 | 0.04 | 0.51 | 0.46 | 93 | 1013.0 |
| 20260904024036 | 70 | 245 | 0.0 | 0.0 | 0.09 | 0.51 | 0.46 | 93 | 1013.0 |
| 20260904023542 | 70 | 245 | 0.0 | 0.0 | 0.19 | 0.51 | 0.46 | 93 | 1012.9 |
| 20260904023036 | 70 | 245 | 0.0 | 0.0 | 0.26 | 0.51 | 0.46 | 93 | 1012.8 |
| 20260904022542 | 70 | 245 | 0.0 | 0.0 | 0.35 | 0.51 | 0.46 | 93 | 1013.0 |
| 20260904022034 | 70 | 245 | 0.0 | 0.0 | 0.40 | 0.51 | 0.46 | 93 | 1012.9 |
| 20260904021542 | 70 | 245 | 0.0 | 0.0 | 0.42 | 0.51 | 0.46 | 93 | 1013.0 |
| 20260904021030 | 70 | 245 | 0.0 | 0.0 | 0.42 | 0.50 | 0.45 | 93 | 1013.1 |
| 20260904020546 | 70 | 245 | 0.0 | 0.0 | 0.42 | 0.50 | 0.45 | 92 | 1013.1 |
| 20260904020116 | 70 | 245 | 0.0 | 0.0 | 0.42 | 0.50 | 0.45 | 92 | 1013.0 |
| 20260904015554 | 70 | 245 | 0.0 | 0.0 | 0.42 | 0.54 | 0.45 | 92 | 1013.0 |
| 20260904015036 | 70 | 245 | 0.0 | 0.0 | 0.41 | 0.53 | 0.44 | 92 | 1012.9 |
| 20260904014601 | 70 | 245 | 0.0 | 0.0 | 0.39 | 0.51 | 0.42 | 91 | 1012.8 |
| 20260904014031 | 71 | 255 | 0.0 | 1.0 | 0.33 | 0.45 | 0.36 | 91 | 1013.2 |
| 20260904013538 | 71 | 275 | 0.0 | 3.0 | 0.22 | 0.34 | 0.25 | 91 | 1013.4 |
| 20260904013056 | 71 | 277 | 0.0 | 9.0 | 0.16 | 0.28 | 0.19 | 91 | 1013.3 |
| 20260904012529 | 72 | 305 | 4.0 | 9.0 | 0.07 | 0.19 | 0.10 | 91 | 1013.1 |
| 20260904012056 | 72 | 329 | 2.0 | 7.0 | 0.02 | 0.14 | 0.05 | 91 | 1012.9 |
| 20260904011529 | 73 | 333 | 0.0 | 0.0 | 0.01 | 0.13 | 0.04 | 93 | 1012.9 |
| 20260904011056 | 73 | 38 | 0.0 | 0.0 | 0.00 | 0.12 | 0.03 | 92 | 1012.7 |
| 20260904010530 | 73 | 336 | 0.0 | 0.0 | 0.00 | 0.12 | 0.03 | 92 | 1012.6 |
| 20260904010026 | 73 | 336 | 0.0 | 0.0 | 0.00 | 0.12 | 0.03 | 91 | 1012.6 |
| 20260904005541 | 73 | 335 | 0.0 | 0.0 | 0.00 | 0.55 | 0.03 | 91 | 1012.4 |
| 20260904005051 | 73 | 338 | 0.0 | 0.0 | 0.00 | 0.55 | 0.03 | 91 | 1012.4 |
| 20260904004538 | 73 | 338 | 0.0 | 0.0 | 0.00 | 0.55 | 0.03 | 91 | 1012.6 |
| 20260904004041 | 73 | 338 | 0.0 | 0.0 | 0.00 | 0.55 | 0.03 | 91 | 1012.5 |
| 20260904003543 | 73 | 338 | 0.0 | 0.0 | 0.00 | 0.55 | 0.03 | 90 | 1012.4 |
| 20260904003047 | 73 | 338 | 0.0 | 0.0 | 0.00 | 0.55 | 0.03 | 90 | 1012.4 |
| 20260904002536 | 73 | 338 | 0.0 | 0.0 | 0.00 | 0.55 | 0.03 | 90 | 1012.6 |
| 20260904002044 | 73 | 338 | 0.0 | 0.0 | 0.00 | 0.55 | 0.03 | 90 | 1012.6 |
| 20260904001537 | 74 | 338 | 0.0 | 0.0 | 0.00 | 0.55 | 0.03 | 90 | 1012.6 |
| 20260904001043 | 74 | 338 | 0.0 | 0.0 | 0.00 | 0.55 | 0.03 | 90 | 1012.5 |
| 20260904000541 | 74 | 338 | 0.0 | 0.0 | 0.00 | 0.55 | 0.03 | 90 | 1012.5 |
| 20260904000029 | 74 | 338 | 0.0 | 0.0 | 0.00 | 0.55 | 0.03 | 90 | 1012.5 |
| 20260903235542 | 74 | 338 | 0.0 | 0.0 | 0.00 | 1.72 | 0.03 | 90 | 1012.5 |
| 20260903235028 | 74 | 338 | 0.0 | 0.0 | 0.00 | 1.72 | 0.03 | 90 | 1012.4 |
| 20260903234543 | 74 | 338 | 0.0 | 0.0 | 0.00 | 1.72 | 0.03 | 90 | 1012.5 |
| 20260903234030 | 74 | 338 | 0.0 | 0.0 | 0.00 | 1.72 | 0.03 | 90 | 1012.4 |
| 20260903233615 | 74 | 338 | 0.0 | 0.0 | 0.00 | 1.72 | 0.03 | 90 | 1012.5 |
| 20260903232550 | 75 | 338 | 0.0 | 0.0 | 0.00 | 1.72 | 0.03 | 89 | 1012.6 |
| 20260903232030 | 75 | 338 | 0.0 | 0.0 | 0.00 | 1.72 | 0.03 | 89 | 1012.6 |
| 20260903231541 | 75 | 338 | 0.0 | 0.0 | 0.00 | 1.72 | 0.03 | 89 | 1012.6 |
| 20260903231042 | 75 | 338 | 0.0 | 0.0 | 0.00 | 1.72 | 0.03 | 89 | 1012.5 |
| 20260903230557 | 75 | 338 | 0.0 | 0.0 | 0.00 | 1.72 | 0.03 | 89 | 1012.6 |
| 20260903230043 | 75 | 338 | 0.0 | 0.0 | 0.00 | 1.72 | 0.03 | 90 | 1012.6 |
| 20260903225551 | 75 | 338 | 0.0 | 0.0 | 0.00 | 1.72 | 0.03 | 90 | 1012.5 |
| 20260903225031 | 75 | 338 | 0.0 | 0.0 | 0.00 | 1.72 | 0.03 | 89 | 1012.5 |
| 20260903224528 | 75 | 338 | 0.0 | 0.0 | 0.00 | 1.72 | 0.03 | 89 | 1012.6 |
| 20260903224033 | 75 | 338 | 0.0 | 0.0 | 0.00 | 1.72 | 0.03 | 89 | 1012.5 |